Time;durP1;ratioP1;P1;durP2;ratioP2;P2;SDS_P1;SDS_P2;PMS_P1;PMS_P2;Temp;Humidity;BMP_temperature;BMP_pressure;BME280_temperature;BME280_humidity;BME280_pressure;Samples;Min_cycle;Max_cycle;Signal;HPM_P1;HPM_P2
2022/10/27 00:00:27;;;;;;;7.32;2.50;;;;;;;;;;4914530;29;20400;-79
2022/10/27 00:02:52;;;;;;;6.30;2.65;;;;;;;;;;4927798;29;20114;-79
2022/10/27 00:05:18;;;;;;;6.60;2.78;;;;;;;;;;4928176;29;20536;-79
2022/10/27 00:07:43;;;;;;;5.97;2.55;;;;;;;;;;4929749;29;20079;-79
2022/10/27 00:10:08;;;;;;;5.25;2.65;;;;;;;;;;4926787;29;20108;-79
2022/10/27 00:12:35;;;;;;;6.20;2.90;;;;;;;;;;4926198;29;20024;-79
2022/10/27 00:15:00;;;;;;;5.57;2.78;;;;;;;;;;4911192;29;20066;-79
2022/10/27 00:17:27;;;;;;;6.93;2.60;;;;;;;;;;4910233;29;20027;-79
2022/10/27 00:19:52;;;;;;;5.93;2.80;;;;;;;;;;4925093;29;20024;-79
2022/10/27 00:22:18;;;;;;;6.40;2.40;;;;;;;;;;4930738;29;20042;-79
2022/10/27 00:24:43;;;;;;;5.28;2.55;;;;;;;;;;4913194;29;20039;-79
2022/10/27 00:27:08;;;;;;;6.63;2.42;;;;;;;;;;4924690;29;20111;-79
2022/10/27 00:29:34;;;;;;;5.88;2.42;;;;;;;;;;4928318;29;20078;-78
2022/10/27 00:31:59;;;;;;;3.97;2.50;;;;;;;;;;4913770;29;20031;-79
2022/10/27 00:34:25;;;;;;;6.00;2.38;;;;;;;;;;4931295;29;20027;-79
2022/10/27 00:36:50;;;;;;;7.40;2.95;;;;;;;;;;4929216;29;20059;-79
2022/10/27 00:39:16;;;;;;;5.38;2.85;;;;;;;;;;4927568;29;20070;-79
2022/10/27 00:41:44;;;;;;;4.68;2.78;;;;;;;;;;4926620;29;20518;-79
2022/10/27 00:44:46;;;;;;;4.80;2.90;;;;;;;;;;4916116;29;20106;-79
2022/10/27 00:47:38;;;;;;;6.82;2.85;;;;;;;;;;4891519;29;20453;-79
2022/10/27 00:50:05;;;;;;;6.82;2.50;;;;;;;;;;4911826;29;20069;-79
2022/10/27 00:52:34;;;;;;;5.50;2.63;;;;;;;;;;4931072;29;20032;-79
2022/10/27 00:55:04;;;;;;;6.00;2.63;;;;;;;;;;4933258;29;20034;-79
2022/10/27 00:57:30;;;;;;;6.25;2.90;;;;;;;;;;4924076;29;20042;-79
2022/10/27 00:59:57;;;;;;;5.63;2.92;;;;;;;;;;4929775;29;20031;-78
2022/10/27 01:02:22;;;;;;;5.65;2.65;;;;;;;;;;4924365;29;20040;-79
2022/10/27 01:04:53;;;;;;;7.00;2.80;;;;;;;;;;4914496;29;20035;-78
2022/10/27 01:07:19;;;;;;;6.13;2.72;;;;;;;;;;4932237;29;20039;-79
2022/10/27 01:09:45;;;;;;;6.25;2.53;;;;;;;;;;4926537;29;20035;-79
2022/10/27 01:12:11;;;;;;;4.82;2.50;;;;;;;;;;4925989;29;20039;-79
2022/10/27 01:14:36;;;;;;;6.15;2.45;;;;;;;;;;4930917;29;20307;-79
2022/10/27 01:17:10;;;;;;;5.20;2.40;;;;;;;;;;4911749;29;20040;-78
2022/10/27 01:20:00;;;;;;;6.55;2.50;;;;;;;;;;4926433;29;20035;-79
2022/10/27 01:22:35;;;;;;;7.30;2.70;;;;;;;;;;4926429;29;20494;-78
2022/10/27 01:25:19;;;;;;;5.28;2.50;;;;;;;;;;4931235;29;20040;-78
2022/10/27 01:27:58;;;;;;;5.10;2.50;;;;;;;;;;4926655;29;20257;-79
2022/10/27 01:30:24;;;;;;;6.40;2.60;;;;;;;;;;4923551;29;20019;-79
2022/10/27 01:32:55;;;;;;;6.75;2.42;;;;;;;;;;4911818;29;20113;-78
2022/10/27 01:36:05;;;;;;;6.32;2.80;;;;;;;;;;4929947;29;20516;-79
2022/10/27 01:38:36;;;;;;;5.63;2.55;;;;;;;;;;4917880;29;20043;-78
2022/10/27 01:41:07;;;;;;;6.45;2.97;;;;;;;;;;4922267;29;20118;-79
2022/10/27 01:43:34;;;;;;;6.10;2.85;;;;;;;;;;4925524;29;20027;-79
2022/10/27 01:46:02;;;;;;;6.68;2.90;;;;;;;;;;4911614;29;20526;-78
2022/10/27 01:48:31;;;;;;;8.10;2.50;;;;;;;;;;4921512;29;20587;-78
2022/10/27 01:50:56;;;;;;;5.25;2.60;;;;;;;;;;4927202;29;20472;-79
2022/10/27 01:53:21;;;;;;;4.25;2.80;;;;;;;;;;4926218;29;20039;-78
2022/10/27 01:56:03;;;;;;;6.38;2.97;;;;;;;;;;4916545;29;20087;-79
2022/10/27 01:58:41;;;;;;;4.50;2.60;;;;;;;;;;4928915;29;20085;-79
2022/10/27 02:01:32;;;;;;;6.22;2.97;;;;;;;;;;4928137;29;20531;-79
2022/10/27 02:04:19;;;;;;;4.82;2.58;;;;;;;;;;4927458;29;20016;-78
2022/10/27 02:07:04;;;;;;;7.68;2.50;;;;;;;;;;4929985;29;20035;-79
2022/10/27 02:09:44;;;;;;;5.30;2.63;;;;;;;;;;4912916;29;20032;-79
2022/10/27 02:12:20;;;;;;;4.88;2.65;;;;;;;;;;4928838;29;20046;-79
2022/10/27 02:14:50;;;;;;;5.22;2.80;;;;;;;;;;4923542;29;20032;-78
2022/10/27 02:17:18;;;;;;;7.47;2.70;;;;;;;;;;4927029;29;20031;-79
2022/10/27 02:19:47;;;;;;;5.22;2.90;;;;;;;;;;4922881;29;20043;-79
2022/10/27 02:22:13;;;;;;;5.78;3.08;;;;;;;;;;4927514;29;20030;-79
2022/10/27 02:24:38;;;;;;;8.10;3.38;;;;;;;;;;4911679;29;20380;-78
2022/10/27 02:27:19;;;;;;;6.57;2.60;;;;;;;;;;4913680;29;20032;-78
2022/10/27 02:29:47;;;;;;;6.90;2.72;;;;;;;;;;4925370;29;20040;-78
2022/10/27 02:32:16;;;;;;;7.55;3.03;;;;;;;;;;4914460;29;20133;-78
2022/10/27 02:34:43;;;;;;;6.28;3.03;;;;;;;;;;4929574;29;20035;-78
2022/10/27 02:37:16;;;;;;;7.20;2.90;;;;;;;;;;4932357;29;20481;-79
2022/10/27 02:39:44;;;;;;;5.72;2.70;;;;;;;;;;4918690;29;20031;-78
2022/10/27 02:42:09;;;;;;;6.65;2.88;;;;;;;;;;4912382;29;20082;-79
2022/10/27 02:44:34;;;;;;;7.13;3.10;;;;;;;;;;4928303;29;20056;-79
2022/10/27 02:47:00;;;;;;;6.35;2.75;;;;;;;;;;4927907;29;20027;-79
2022/10/27 02:49:25;;;;;;;6.03;3.00;;;;;;;;;;4927111;29;20023;-78
2022/10/27 02:51:50;;;;;;;7.65;2.88;;;;;;;;;;4907556;29;20035;-78
2022/10/27 02:54:16;;;;;;;6.25;2.60;;;;;;;;;;4916266;29;20024;-79
2022/10/27 02:56:41;;;;;;;6.15;2.95;;;;;;;;;;4932237;29;20058;-79
2022/10/27 02:59:06;;;;;;;9.48;2.92;;;;;;;;;;4933293;29;20059;-78
2022/10/27 03:01:32;;;;;;;6.93;3.03;;;;;;;;;;4913461;29;20034;-79
2022/10/27 03:03:57;;;;;;;6.68;2.70;;;;;;;;;;4930482;29;20384;-78
2022/10/27 03:06:22;;;;;;;5.10;2.75;;;;;;;;;;4933634;29;20035;-79
2022/10/27 03:08:48;;;;;;;4.97;2.90;;;;;;;;;;4917552;29;20036;-79
2022/10/27 03:11:13;;;;;;;6.18;2.90;;;;;;;;;;4929660;29;20020;-78
2022/10/27 03:13:39;;;;;;;5.15;2.85;;;;;;;;;;4930033;29;20123;-79
2022/10/27 03:16:05;;;;;;;11.32;3.30;;;;;;;;;;4927772;29;20465;-78
2022/10/27 03:18:30;;;;;;;4.32;2.90;;;;;;;;;;4922495;29;20046;-79
2022/10/27 03:20:56;;;;;;;5.25;2.70;;;;;;;;;;4928984;29;20026;-79
2022/10/27 03:23:21;;;;;;;5.60;2.65;;;;;;;;;;4930390;29;20035;-78
2022/10/27 03:25:46;;;;;;;5.80;2.45;;;;;;;;;;4916301;29;20516;-79
2022/10/27 03:28:12;;;;;;;5.22;2.60;;;;;;;;;;4931061;29;20412;-79
2022/10/27 03:30:38;;;;;;;4.32;2.40;;;;;;;;;;4929706;29;20032;-79
2022/10/27 03:33:03;;;;;;;5.10;2.50;;;;;;;;;;4932192;29;20034;-79
2022/10/27 03:35:29;;;;;;;8.30;2.55;;;;;;;;;;4927642;29;20046;-79
2022/10/27 03:37:59;;;;;;;4.97;2.60;;;;;;;;;;4930428;29;20035;-78
2022/10/27 03:40:25;;;;;;;5.32;2.40;;;;;;;;;;4914582;29;20036;-79
2022/10/27 03:42:52;;;;;;;7.13;2.78;;;;;;;;;;4918861;29;20082;-79
2022/10/27 03:45:18;;;;;;;3.58;2.30;;;;;;;;;;4914260;29;20023;-79
2022/10/27 03:47:43;;;;;;;6.35;2.70;;;;;;;;;;4915488;29;20547;-79
2022/10/27 03:50:09;;;;;;;3.60;2.25;;;;;;;;;;4915811;29;20094;-79
2022/10/27 03:52:34;;;;;;;5.88;2.60;;;;;;;;;;4914414;29;20035;-78
2022/10/27 03:54:59;;;;;;;4.60;2.17;;;;;;;;;;4926886;29;20035;-79
2022/10/27 03:57:25;;;;;;;3.78;2.17;;;;;;;;;;4912930;29;20031;-79
2022/10/27 03:59:50;;;;;;;4.70;2.40;;;;;;;;;;4929145;29;20027;-79
2022/10/27 04:02:16;;;;;;;7.55;2.40;;;;;;;;;;4924077;29;20362;-78
2022/10/27 04:04:42;;;;;;;6.07;2.33;;;;;;;;;;4915060;29;20032;-79
2022/10/27 04:07:07;;;;;;;4.80;2.22;;;;;;;;;;4931165;29;20468;-79
2022/10/27 04:09:33;;;;;;;5.65;2.22;;;;;;;;;;4931195;29;20464;-79
2022/10/27 04:11:58;;;;;;;5.32;2.35;;;;;;;;;;4927422;29;20405;-78
2022/10/27 04:14:23;;;;;;;7.97;2.88;;;;;;;;;;4924971;29;20206;-79
2022/10/27 04:16:50;;;;;;;6.20;2.80;;;;;;;;;;4925482;29;20106;-78
2022/10/27 04:19:19;;;;;;;5.90;2.83;;;;;;;;;;4916120;29;20027;-78
2022/10/27 04:21:45;;;;;;;7.15;2.70;;;;;;;;;;4927797;29;20051;-78
2022/10/27 04:24:11;;;;;;;6.35;2.90;;;;;;;;;;4931069;29;20023;-78
2022/10/27 04:26:37;;;;;;;6.53;2.90;;;;;;;;;;4929453;29;20060;-78
2022/10/27 04:29:03;;;;;;;5.22;3.10;;;;;;;;;;4927979;29;20446;-79
2022/10/27 04:31:28;;;;;;;6.43;3.30;;;;;;;;;;4929318;29;20032;-78
2022/10/27 04:33:54;;;;;;;7.85;3.00;;;;;;;;;;4930151;29;20032;-78
2022/10/27 04:36:19;;;;;;;6.95;2.90;;;;;;;;;;4934272;29;20031;-78
2022/10/27 04:38:48;;;;;;;7.40;3.60;;;;;;;;;;4928723;29;20095;-78
2022/10/27 04:41:14;;;;;;;6.65;3.75;;;;;;;;;;4911179;29;20551;-78
2022/10/27 04:43:39;;;;;;;6.40;3.40;;;;;;;;;;4928538;29;20118;-79
2022/10/27 04:46:04;;;;;;;6.40;3.55;;;;;;;;;;4910684;29;20063;-78
2022/10/27 04:48:30;;;;;;;7.22;3.90;;;;;;;;;;4909639;29;20024;-79
2022/10/27 04:50:55;;;;;;;6.05;3.58;;;;;;;;;;4914652;29;20042;-79
2022/10/27 04:53:20;;;;;;;6.55;3.63;;;;;;;;;;4913281;29;20029;-78
2022/10/27 04:55:46;;;;;;;6.80;3.67;;;;;;;;;;4928194;29;20142;-79
2022/10/27 04:58:11;;;;;;;6.82;3.60;;;;;;;;;;4928782;29;20027;-78
2022/10/27 05:00:36;;;;;;;5.82;3.65;;;;;;;;;;4911645;29;20122;-78
2022/10/27 05:03:02;;;;;;;6.47;3.85;;;;;;;;;;4914480;29;20123;-78
2022/10/27 05:05:28;;;;;;;6.00;3.50;;;;;;;;;;4907493;29;20031;-78
2022/10/27 05:08:02;;;;;;;6.88;3.58;;;;;;;;;;4926396;29;20042;-78
2022/10/27 05:10:29;;;;;;;6.45;3.60;;;;;;;;;;4911231;29;20032;-79
2022/10/27 05:12:54;;;;;;;6.85;3.80;;;;;;;;;;4924015;29;20035;-78
2022/10/27 05:15:20;;;;;;;6.60;3.92;;;;;;;;;;4926729;29;20042;-79
2022/10/27 05:17:45;;;;;;;9.32;3.40;;;;;;;;;;4911270;29;20032;-78
2022/10/27 05:20:12;;;;;;;5.40;3.30;;;;;;;;;;4909206;29;20034;-79
2022/10/27 05:22:38;;;;;;;9.65;4.07;;;;;;;;;;4928659;29;20086;-79
2022/10/27 05:25:07;;;;;;;6.50;3.28;;;;;;;;;;4929849;29;20049;-79
2022/10/27 05:27:33;;;;;;;6.97;3.33;;;;;;;;;;4913980;29;20083;-79
2022/10/27 05:29:58;;;;;;;7.28;3.45;;;;;;;;;;4922963;29;20036;-79
2022/10/27 05:32:24;;;;;;;5.25;2.95;;;;;;;;;;4912797;29;20543;-78
2022/10/27 05:34:49;;;;;;;7.43;2.97;;;;;;;;;;4914657;29;20420;-78
2022/10/27 05:37:14;;;;;;;6.25;2.97;;;;;;;;;;4905858;29;20028;-78
2022/10/27 05:39:40;;;;;;;5.13;2.72;;;;;;;;;;4925189;29;20508;-79
2022/10/27 05:42:06;;;;;;;6.13;2.97;;;;;;;;;;4914872;29;20560;-79
2022/10/27 05:44:31;;;;;;;4.63;2.65;;;;;;;;;;4914384;29;20091;-78
2022/10/27 05:46:56;;;;;;;5.72;2.83;;;;;;;;;;4920420;29;20607;-79
2022/10/27 05:49:22;;;;;;;6.07;2.88;;;;;;;;;;4911542;29;20117;-78
2022/10/27 05:51:51;;;;;;;6.82;2.70;;;;;;;;;;4913089;29;20031;-79
2022/10/27 05:54:17;;;;;;;4.75;2.50;;;;;;;;;;4926556;29;20031;-78
2022/10/27 05:56:43;;;;;;;4.80;2.70;;;;;;;;;;4921946;29;20075;-79
2022/10/27 05:59:10;;;;;;;5.63;2.75;;;;;;;;;;4926702;29;20036;-78
2022/10/27 06:01:35;;;;;;;7.50;3.03;;;;;;;;;;4905022;29;20134;-79
2022/10/27 06:04:01;;;;;;;5.47;2.90;;;;;;;;;;4925282;29;20119;-78
2022/10/27 06:06:26;;;;;;;5.45;2.75;;;;;;;;;;4927591;29;20457;-79
2022/10/27 06:08:52;;;;;;;4.55;2.50;;;;;;;;;;4913249;29;20036;-79
2022/10/27 06:11:17;;;;;;;6.90;2.63;;;;;;;;;;4931149;29;20473;-78
2022/10/27 06:13:42;;;;;;;5.18;2.60;;;;;;;;;;4925337;29;20040;-78
2022/10/27 06:16:08;;;;;;;4.85;2.47;;;;;;;;;;4921421;29;20043;-79
2022/10/27 06:18:33;;;;;;;6.47;2.47;;;;;;;;;;4928876;29;20038;-78
2022/10/27 06:20:58;;;;;;;5.40;3.10;;;;;;;;;;4927552;29;20070;-79
2022/10/27 06:23:24;;;;;;;7.05;2.40;;;;;;;;;;4929889;29;20034;-79
2022/10/27 06:25:49;;;;;;;5.72;2.55;;;;;;;;;;4911255;29;20048;-78
2022/10/27 06:28:14;;;;;;;6.28;2.90;;;;;;;;;;4930618;29;20027;-78
2022/10/27 06:30:40;;;;;;;5.78;2.50;;;;;;;;;;4932315;29;20032;-78
2022/10/27 06:33:05;;;;;;;5.97;2.50;;;;;;;;;;4915622;29;20086;-78
2022/10/27 06:35:31;;;;;;;5.57;2.67;;;;;;;;;;4918246;29;20036;-78
2022/10/27 06:37:56;;;;;;;5.22;2.60;;;;;;;;;;4933582;29;20428;-78
2022/10/27 06:40:22;;;;;;;5.88;2.90;;;;;;;;;;4934575;29;20031;-79
2022/10/27 06:42:49;;;;;;;6.15;2.42;;;;;;;;;;4916784;29;20168;-79
2022/10/27 06:45:16;;;;;;;4.43;2.47;;;;;;;;;;4912620;29;20114;-78
2022/10/27 06:47:42;;;;;;;8.25;2.50;;;;;;;;;;4915079;29;20031;-78
2022/10/27 06:50:08;;;;;;;4.30;2.35;;;;;;;;;;4930064;29;20086;-78
2022/10/27 06:52:38;;;;;;;3.85;2.63;;;;;;;;;;4935270;29;20042;-79
2022/10/27 06:55:04;;;;;;;7.00;2.45;;;;;;;;;;4929815;29;20388;-78
2022/10/27 06:57:30;;;;;;;4.38;2.30;;;;;;;;;;4914894;29;20548;-79
2022/10/27 06:59:55;;;;;;;6.55;2.58;;;;;;;;;;4925114;29;20118;-79
2022/10/27 07:02:21;;;;;;;7.68;2.50;;;;;;;;;;4925009;29;20036;-79
2022/10/27 07:04:47;;;;;;;4.20;2.45;;;;;;;;;;4927181;29;20507;-79
2022/10/27 07:07:12;;;;;;;9.10;2.40;;;;;;;;;;4928099;29;20039;-78
2022/10/27 07:09:39;;;;;;;5.75;2.63;;;;;;;;;;4926404;29;20238;-79
2022/10/27 07:12:04;;;;;;;5.22;2.50;;;;;;;;;;4916440;29;20511;-78
2022/10/27 07:14:30;;;;;;;4.95;2.65;;;;;;;;;;4929524;29;20024;-79
2022/10/27 07:16:57;;;;;;;4.53;2.58;;;;;;;;;;4932217;29;20039;-79
2022/10/27 07:19:23;;;;;;;6.30;2.80;;;;;;;;;;4932012;29;20047;-78
2022/10/27 07:21:48;;;;;;;5.40;2.80;;;;;;;;;;4924542;29;20031;-79
2022/10/27 07:24:13;;;;;;;6.70;2.60;;;;;;;;;;4925073;29;20035;-78
2022/10/27 07:26:39;;;;;;;7.13;2.90;;;;;;;;;;4906829;29;20039;-78
2022/10/27 07:29:04;;;;;;;4.53;2.70;;;;;;;;;;4908479;29;20035;-78
2022/10/27 07:31:29;;;;;;;6.68;3.30;;;;;;;;;;4910450;29;20028;-79
2022/10/27 07:33:55;;;;;;;5.68;2.53;;;;;;;;;;4907211;29;20057;-79
2022/10/27 07:36:20;;;;;;;6.03;2.85;;;;;;;;;;4907642;29;20024;-78
2022/10/27 07:38:45;;;;;;;5.60;2.60;;;;;;;;;;4910904;29;20038;-78
2022/10/27 07:41:11;;;;;;;6.15;2.78;;;;;;;;;;4909007;29;20073;-78
2022/10/27 07:43:38;;;;;;;5.70;2.60;;;;;;;;;;4902589;29;20396;-78
2022/10/27 07:46:03;;;;;;;6.72;3.17;;;;;;;;;;4905552;29;20036;-78
2022/10/27 07:48:29;;;;;;;6.68;2.90;;;;;;;;;;4918469;28;20607;-78
2022/10/27 07:50:54;;;;;;;7.82;2.90;;;;;;;;;;4903025;29;20400;-79
2022/10/27 07:53:19;;;;;;;5.88;3.00;;;;;;;;;;4915865;29;20024;-78
2022/10/27 07:55:45;;;;;;;7.63;3.15;;;;;;;;;;4906252;29;20036;-79
2022/10/27 07:58:13;;;;;;;5.88;3.00;;;;;;;;;;4915965;29;20040;-78
2022/10/27 08:00:40;;;;;;;6.00;3.30;;;;;;;;;;4903201;29;20805;-78
2022/10/27 08:03:09;;;;;;;5.18;3.03;;;;;;;;;;4899632;29;20043;-78
2022/10/27 08:05:35;;;;;;;6.32;3.08;;;;;;;;;;4897496;29;20033;-78
2022/10/27 08:08:03;;;;;;;7.60;3.35;;;;;;;;;;4905761;29;20576;-78
2022/10/27 08:10:29;;;;;;;6.03;2.80;;;;;;;;;;4904591;29;20111;-78
2022/10/27 08:12:55;;;;;;;6.25;2.97;;;;;;;;;;4919282;29;20055;-78
2022/10/27 08:15:21;;;;;;;6.30;3.22;;;;;;;;;;4906786;29;20087;-78
2022/10/27 08:17:51;;;;;;;20.17;3.63;;;;;;;;;;4903477;29;20032;-78
2022/10/27 08:20:17;;;;;;;5.78;2.67;;;;;;;;;;4905128;29;20029;-78
2022/10/27 08:22:42;;;;;;;5.10;2.80;;;;;;;;;;4902938;29;20392;-78
2022/10/27 08:25:08;;;;;;;4.30;2.58;;;;;;;;;;4904270;29;20044;-78
2022/10/27 08:27:33;;;;;;;5.90;2.80;;;;;;;;;;4919359;29;20036;-78
2022/10/27 08:29:59;;;;;;;7.18;2.97;;;;;;;;;;4904013;29;20434;-78
2022/10/27 08:32:24;;;;;;;4.10;2.28;;;;;;;;;;4918077;29;20028;-78
2022/10/27 08:34:50;;;;;;;5.47;2.28;;;;;;;;;;4903702;29;20036;-78
2022/10/27 08:37:15;;;;;;;5.93;2.65;;;;;;;;;;4901695;29;20063;-78
2022/10/27 08:39:40;;;;;;;5.07;2.28;;;;;;;;;;4905186;29;20436;-79
2022/10/27 08:42:14;;;;;;;4.22;2.05;;;;;;;;;;4903206;29;20036;-79
2022/10/27 08:44:45;;;;;;;4.75;2.13;;;;;;;;;;4898493;29;20724;-79
2022/10/27 08:47:21;;;;;;;4.68;2.22;;;;;;;;;;4903062;29;20717;-79
2022/10/27 08:50:08;;;;;;;3.95;2.00;;;;;;;;;;4900760;29;20030;-78
2022/10/27 08:52:41;;;;;;;4.55;2.03;;;;;;;;;;4917120;29;20596;-79
2022/10/27 08:55:12;;;;;;;4.25;2.15;;;;;;;;;;4904307;29;21675;-79
2022/10/27 08:57:42;;;;;;;4.18;2.03;;;;;;;;;;4916545;29;20033;-79
2022/10/27 09:00:12;;;;;;;5.45;2.00;;;;;;;;;;4902208;29;20485;-79
2022/10/27 09:03:10;;;;;;;6.55;2.17;;;;;;;;;;4904919;29;20059;-79
2022/10/27 09:05:59;;;;;;;6.78;1.95;;;;;;;;;;4901764;29;20064;-79
2022/10/27 09:08:36;;;;;;;3.58;1.70;;;;;;;;;;4917860;29;20576;-78
2022/10/27 09:11:32;;;;;;;4.03;1.73;;;;;;;;;;4903045;29;20067;-79
2022/10/27 09:14:45;;;;;;;3.92;1.45;;;;;;;;;;4903605;29;20028;-79
2022/10/27 09:17:20;;;;;;;3.42;1.77;;;;;;;;;;4894534;29;20674;-79
2022/10/27 09:20:23;;;;;;;3.63;1.33;;;;;;;;;;4904372;29;20032;-78
2022/10/27 09:22:51;;;;;;;4.05;1.40;;;;;;;;;;4896523;29;20086;-79
2022/10/27 09:25:19;;;;;;;4.10;1.33;;;;;;;;;;4916539;29;20032;-79
2022/10/27 09:27:49;;;;;;;3.67;1.40;;;;;;;;;;4902668;29;20500;-78
2022/10/27 09:30:15;;;;;;;4.38;1.27;;;;;;;;;;4900305;29;20032;-78
2022/10/27 09:32:46;;;;;;;4.65;1.40;;;;;;;;;;4899382;29;20032;-79
2022/10/27 09:35:14;;;;;;;2.85;1.15;;;;;;;;;;4915521;29;20032;-79
2022/10/27 09:37:41;;;;;;;4.45;1.33;;;;;;;;;;4903568;29;22094;-78
2022/10/27 09:40:18;;;;;;;4.35;1.27;;;;;;;;;;4904281;29;20119;-78
2022/10/27 09:42:45;;;;;;;4.07;1.55;;;;;;;;;;4903573;29;20063;-78
2022/10/27 09:45:24;;;;;;;1.85;1.05;;;;;;;;;;4903003;29;20032;-78
2022/10/27 09:47:54;;;;;;;4.20;1.35;;;;;;;;;;4917310;29;20091;-78
2022/10/27 09:50:22;;;;;;;5.10;1.48;;;;;;;;;;4905033;29;20024;-78
2022/10/27 09:52:48;;;;;;;3.20;1.33;;;;;;;;;;4904577;29;22255;-78
2022/10/27 09:55:14;;;;;;;3.38;1.00;;;;;;;;;;4919194;29;20039;-78
2022/10/27 09:57:41;;;;;;;2.65;0.95;;;;;;;;;;4910159;29;20032;-78
2022/10/27 10:00:07;;;;;;;3.28;1.42;;;;;;;;;;4904519;29;20043;-78
2022/10/27 10:02:40;;;;;;;2.67;1.10;;;;;;;;;;4905234;29;20473;-78
2022/10/27 10:05:20;;;;;;;3.03;1.00;;;;;;;;;;4904204;29;20677;-78
2022/10/27 10:07:45;;;;;;;3.75;1.20;;;;;;;;;;4906374;29;20397;-79
2022/10/27 10:10:20;;;;;;;3.65;1.10;;;;;;;;;;4901736;29;20040;-78
2022/10/27 10:12:45;;;;;;;3.00;1.02;;;;;;;;;;4910389;29;20028;-79
2022/10/27 10:15:10;;;;;;;4.97;1.17;;;;;;;;;;4905089;29;20036;-79
2022/10/27 10:17:39;;;;;;;5.88;1.10;;;;;;;;;;4923665;29;20043;-80
2022/10/27 10:20:06;;;;;;;2.45;1.00;;;;;;;;;;4908883;29;20403;-79
2022/10/27 10:22:34;;;;;;;3.42;1.05;;;;;;;;;;4924705;29;20043;-79
2022/10/27 10:25:23;;;;;;;6.32;1.10;;;;;;;;;;4907802;29;20511;-79
2022/10/27 10:27:58;;;;;;;2.55;0.98;;;;;;;;;;4923002;29;20031;-79
2022/10/27 10:30:24;;;;;;;4.25;1.10;;;;;;;;;;4922399;29;20526;-79
2022/10/27 10:32:55;;;;;;;3.92;0.90;;;;;;;;;;4921575;29;20036;-79
2022/10/27 10:35:47;;;;;;;2.28;1.00;;;;;;;;;;4920116;29;20045;-79
2022/10/27 10:38:34;;;;;;;4.63;1.13;;;;;;;;;;4919169;29;20043;-79
2022/10/27 10:41:00;;;;;;;2.30;1.02;;;;;;;;;;4924762;29;20040;-79
2022/10/27 10:43:26;;;;;;;3.28;0.93;;;;;;;;;;4920626;29;20028;-79
2022/10/27 10:45:52;;;;;;;3.35;1.00;;;;;;;;;;4904332;29;20511;-79
2022/10/27 10:48:27;;;;;;;1.38;0.70;;;;;;;;;;4920921;29;20131;-79
2022/10/27 10:50:53;;;;;;;3.60;1.00;;;;;;;;;;4913289;29;20392;-79
2022/10/27 10:53:28;;;;;;;4.65;1.05;;;;;;;;;;4916071;29;20031;-79
2022/10/27 10:55:56;;;;;;;1.60;0.80;;;;;;;;;;4900061;29;20150;-79
2022/10/27 10:58:24;;;;;;;2.80;1.10;;;;;;;;;;4907920;29;20031;-79
2022/10/27 11:00:55;;;;;;;3.38;1.10;;;;;;;;;;4895786;29;20531;-79
2022/10/27 11:03:23;;;;;;;4.30;0.90;;;;;;;;;;4914513;29;20476;-79
2022/10/27 11:05:59;;;;;;;2.00;0.90;;;;;;;;;;4899333;29;20136;-79
2022/10/27 11:08:37;;;;;;;3.75;1.10;;;;;;;;;;4917786;29;20039;-79
2022/10/27 11:11:05;;;;;;;2.70;0.90;;;;;;;;;;4920812;29;20043;-79
2022/10/27 11:13:45;;;;;;;2.03;0.90;;;;;;;;;;4901263;29;20027;-78
2022/10/27 11:16:12;;;;;;;3.45;1.00;;;;;;;;;;4920447;29;20550;-78
2022/10/27 11:18:50;;;;;;;2.55;0.93;;;;;;;;;;4917913;29;20039;-78
2022/10/27 11:21:35;;;;;;;3.33;1.10;;;;;;;;;;4915837;29;20609;-78
2022/10/27 11:24:13;;;;;;;3.10;1.08;;;;;;;;;;4895912;29;20027;-78
2022/10/27 11:27:16;;;;;;;2.67;1.00;;;;;;;;;;4920538;29;20091;-78
2022/10/27 11:29:50;;;;;;;7.00;1.08;;;;;;;;;;4830892;29;20736;-78
2022/10/27 11:32:35;;;;;;;3.13;0.95;;;;;;;;;;4917537;29;20445;-78
2022/10/27 11:35:20;;;;;;;2.72;1.00;;;;;;;;;;4892806;29;20134;-78
2022/10/27 11:38:30;;;;;;;2.47;1.10;;;;;;;;;;4905895;29;20046;-78
2022/10/27 11:41:18;;;;;;;3.20;0.93;;;;;;;;;;4912601;29;20035;-79
2022/10/27 11:44:02;;;;;;;4.18;1.38;;;;;;;;;;4905243;29;20640;-78
2022/10/27 11:46:57;;;;;;;3.67;1.20;;;;;;;;;;4900029;29;20522;-78
2022/10/27 11:49:56;;;;;;;2.67;1.05;;;;;;;;;;4911451;29;20048;-78
2022/10/27 11:52:51;;;;;;;3.63;1.15;;;;;;;;;;4915392;29;20122;-78
2022/10/27 11:55:19;;;;;;;3.13;1.10;;;;;;;;;;4903428;29;20666;-78
2022/10/27 11:58:19;;;;;;;4.15;1.05;;;;;;;;;;4917007;29;20264;-78
2022/10/27 12:00:56;;;;;;;1.95;0.98;;;;;;;;;;4920547;29;20030;-78
2022/10/27 12:03:28;;;;;;;3.35;1.00;;;;;;;;;;4920211;29;20574;-78
2022/10/27 12:06:18;;;;;;;5.63;1.33;;;;;;;;;;4917027;29;20041;-78
2022/10/27 12:09:14;;;;;;;4.15;1.10;;;;;;;;;;4918980;29;20035;-78
2022/10/27 12:11:47;;;;;;;2.60;1.10;;;;;;;;;;4921878;29;20646;-78
2022/10/27 12:14:37;;;;;;;3.00;1.13;;;;;;;;;;4922218;29;20028;-78
2022/10/27 12:17:17;;;;;;;4.43;1.10;;;;;;;;;;4919890;29;20050;-78
2022/10/27 12:19:45;;;;;;;2.58;1.00;;;;;;;;;;4920260;29;20043;-78
2022/10/27 12:22:19;;;;;;;2.35;1.00;;;;;;;;;;4906789;29;20567;-78
2022/10/27 12:24:52;;;;;;;4.88;1.10;;;;;;;;;;4912860;29;20377;-78
2022/10/27 12:27:29;;;;;;;2.47;1.00;;;;;;;;;;4918207;29;20480;-78
2022/10/27 12:30:00;;;;;;;3.33;1.40;;;;;;;;;;4917186;29;20097;-79
2022/10/27 12:32:33;;;;;;;4.03;1.15;;;;;;;;;;4906792;29;20040;-78
2022/10/27 12:35:36;;;;;;;5.70;1.20;;;;;;;;;;4903297;29;20036;-79
2022/10/27 12:38:29;;;;;;;6.50;1.47;;;;;;;;;;4918471;29;20075;-78
2022/10/27 12:41:10;;;;;;;8.48;1.10;;;;;;;;;;4915205;29;20114;-78
2022/10/27 12:44:00;;;;;;;5.20;1.30;;;;;;;;;;4918793;29;20547;-78
2022/10/27 12:46:34;;;;;;;5.57;1.17;;;;;;;;;;4897272;29;20049;-78
2022/10/27 12:49:18;;;;;;;3.95;1.10;;;;;;;;;;4898901;29;20408;-78
2022/10/27 12:52:00;;;;;;;2.88;0.90;;;;;;;;;;4917602;29;20102;-78
2022/10/27 12:54:47;;;;;;;3.83;1.08;;;;;;;;;;4926398;29;20759;-78
2022/10/27 12:57:34;;;;;;;2.28;1.00;;;;;;;;;;4923755;29;20032;-78
2022/10/27 13:00:02;;;;;;;4.85;1.40;;;;;;;;;;4928282;29;20094;-78
2022/10/27 13:02:42;;;;;;;3.25;1.20;;;;;;;;;;4925099;29;20030;-78
2022/10/27 13:05:43;;;;;;;5.53;1.10;;;;;;;;;;4922759;29;20518;-79
2022/10/27 13:08:31;;;;;;;4.30;1.05;;;;;;;;;;4907040;29;20031;-78
2022/10/27 13:10:59;;;;;;;3.25;1.15;;;;;;;;;;4908989;29;20344;-78
2022/10/27 13:14:00;;;;;;;3.95;1.20;;;;;;;;;;4920404;29;20036;-78
2022/10/27 13:16:40;;;;;;;4.32;1.23;;;;;;;;;;4917670;29;20036;-78
2022/10/27 13:19:17;;;;;;;5.05;1.20;;;;;;;;;;4919082;29;20737;-78
2022/10/27 13:21:54;;;;;;;3.97;1.38;;;;;;;;;;4928364;29;20067;-78
2022/10/27 13:24:28;;;;;;;3.85;1.00;;;;;;;;;;4927722;29;20124;-78
2022/10/27 13:26:57;;;;;;;4.28;1.00;;;;;;;;;;4927677;29;20043;-78
2022/10/27 13:29:45;;;;;;;4.10;1.00;;;;;;;;;;4925281;29;20468;-78
2022/10/27 13:32:26;;;;;;;3.88;1.05;;;;;;;;;;4915707;29;20404;-78
2022/10/27 13:35:00;;;;;;;5.45;1.40;;;;;;;;;;4928797;29;20023;-78
2022/10/27 13:37:37;;;;;;;3.13;1.20;;;;;;;;;;4923843;29;20143;-78
2022/10/27 13:40:25;;;;;;;4.47;1.33;;;;;;;;;;4924601;29;20039;-78
2022/10/27 13:42:53;;;;;;;5.30;1.48;;;;;;;;;;4921494;29;20031;-78
2022/10/27 13:45:34;;;;;;;3.97;1.33;;;;;;;;;;4918419;29;20114;-79
2022/10/27 13:48:22;;;;;;;5.13;1.58;;;;;;;;;;4915437;29;20074;-78
2022/10/27 13:50:57;;;;;;;4.20;1.30;;;;;;;;;;4908854;29;20419;-78
2022/10/27 13:53:23;;;;;;;4.13;1.10;;;;;;;;;;4914345;29;20035;-78
2022/10/27 13:56:23;;;;;;;9.90;1.60;;;;;;;;;;4915381;29;20392;-78
2022/10/27 13:58:59;;;;;;;3.78;1.52;;;;;;;;;;4903181;29;20044;-78
2022/10/27 14:01:57;;;;;;;5.38;1.45;;;;;;;;;;4898338;29;20484;-78
2022/10/27 14:04:47;;;;;;;7.15;1.40;;;;;;;;;;4900605;29;20963;-78
2022/10/27 14:07:14;;;;;;;4.28;1.48;;;;;;;;;;4916293;29;20036;-78
2022/10/27 14:09:48;;;;;;;4.53;1.40;;;;;;;;;;4900040;29;20044;-78
2022/10/27 14:12:21;;;;;;;6.75;1.50;;;;;;;;;;4917268;29;20028;-78
2022/10/27 14:14:52;;;;;;;4.80;1.33;;;;;;;;;;4914488;29;20436;-78
2022/10/27 14:17:21;;;;;;;4.45;1.20;;;;;;;;;;4920025;29;20032;-78
2022/10/27 14:20:16;;;;;;;5.35;1.25;;;;;;;;;;4923577;29;20190;-78
2022/10/27 14:22:44;;;;;;;3.13;1.30;;;;;;;;;;4900064;29;20122;-78
2022/10/27 14:25:25;;;;;;;3.38;1.20;;;;;;;;;;4927722;29;20066;-78
2022/10/27 14:28:04;;;;;;;3.40;1.42;;;;;;;;;;4925608;29;20164;-78
2022/10/27 14:30:29;;;;;;;3.55;1.10;;;;;;;;;;4908394;29;20119;-78
2022/10/27 14:32:55;;;;;;;3.22;1.30;;;;;;;;;;4912407;29;20126;-78
2022/10/27 14:35:29;;;;;;;4.22;1.38;;;;;;;;;;4908111;29;20031;-78
2022/10/27 14:37:56;;;;;;;9.02;1.58;;;;;;;;;;4924325;29;20050;-78
2022/10/27 14:40:29;;;;;;;2.45;1.00;;;;;;;;;;4922985;29;20500;-77
2022/10/27 14:42:54;;;;;;;;;;;;;;;;;;4925482;29;20031;-77
2022/10/27 14:45:22;;;;;;;5.07;1.27;;;;;;;;;;4918368;29;21339;-78
2022/10/27 14:48:01;;;;;;;4.07;1.33;;;;;;;;;;4927573;29;20087;-78
2022/10/27 14:50:33;;;;;;;4.97;1.50;;;;;;;;;;4913168;29;20053;-78
2022/10/27 14:53:00;;;;;;;5.53;1.85;;;;;;;;;;4928664;29;20035;-78
2022/10/27 14:55:37;;;;;;;3.25;1.40;;;;;;;;;;4906642;29;20099;-77
2022/10/27 14:58:18;;;;;;;8.15;2.03;;;;;;;;;;4925570;29;20511;-77
2022/10/27 15:00:49;;;;;;;4.03;1.40;;;;;;;;;;4928114;29;20689;-78
2022/10/27 15:03:15;;;;;;;3.90;1.70;;;;;;;;;;4928759;29;20071;-78
2022/10/27 15:05:45;;;;;;;5.88;1.83;;;;;;;;;;4928063;29;20099;-78
2022/10/27 15:08:24;;;;;;;4.93;1.80;;;;;;;;;;4925322;29;20027;-78